Main page
METAR-TAF:

METAR-TAF

Airports :

Caen, France

Caen – Carpiquet Airport

latitude: 49-11N, longitude: 000-27W, elevation: 78 m

Current weather observation

The report was made 43 minutes ago, at 23:30 UTC
Wind 7 kt from the Southwest
Temperature 9°C
Humidity 93%
Pressure 1023 hPa
Visibility 10 km or more
no clouds below 1500 m and no cumulonimbus

METAR: LFRK 192330Z AUTO 23007KT CAVOK 09/08 Q1023

Time: 02:13 (00:13 UTC)

Forecast

The report was made 10 hours and 13 minutes ago, at 14:00 UTC
Forecast valid from 19 at 15 UTC to 19 at 24 UTC
Wind 7 kt from the North/Northwest
Visibility 10 km or more
Few clouds at a height of 3000 ft
Becoming
from 19 at 19 UTC to 19 at 21 UTC
Wind 5 kt from the South/Southwest

TAF: LFRK 191400Z 1915/1924 33007KT 9999 FEW030 BECMG 1919/1921 20005KT

Weather observations and forecasts of more than 4000 airports (METAR and TAF reports).

The available stations are represented by yellow and red dots on the map.

Hover mouse over dot to see the name of the station.

Then click to see weather observations and forecasts.

To change the map : click on the green buttons with a black cross to zoom in, on the green button with a dash to zoom out, or on the green arrows for adjacent maps.


METAR-TAF: